Washburn, WI

4:20 PM CDT on September 01, 2014 (GMT -0500)
Near Northland College | Change Station
CLOSE
Current Station
Personal Weather Station
Location: Ashland, WI
Elevation: 689 ft
Nearby Weather Stations

Elev 689 ft 46.58 °N, 90.88 °W | Updated 0 second ago

Partly Cloudy
Partly Cloudy
73.0 °F
Feels Like 77 °F
N
2.0
Wind Variable Wind from NNW
Gusts 4.0 mph

Today
High -- | Low -- °F
--% Chance of Precip.
Yesterday
High -- | Low -- °F
Precip. -- in
6:23 AM 7:42 PM
Waxing Crescent, 44% visible
Pressure 29.67 in
Visibility 10.0 miles
Clouds Few 3900 ft
Scattered Clouds 7000 ft
Heat Index 77 °F
Dew Point 57 °F
Humidity 57%
Rainfall 0.57 in
Snow Depth Not available.
UV 4 out of 12
Pollen 3.00 out of 12
Air Quality Not available.
Flu Activity Not available.
METAR KASX 012053Z AUTO 26010G18KT 10SM FEW039 SCT070 22/13 A2967 RMK AO2 SLP046 T02220133 53007

More Conditions Fewer Conditions

Pressure 29.67 in
Visibility 10.0 miles
Clouds Few 3900 ft
Scattered Clouds 7000 ft
Heat Index 77 °F
Dew Point 57 °F
Humidity 57%
Rainfall 0.57 in
Snow Depth Not available.
UV 4 out of 12
Pollen 3.00 out of 12
Air Quality Not available.
Flu Activity Not available.
METAR KASX 012053Z AUTO 26010G18KT 10SM FEW039 SCT070 22/13 A2967 RMK AO2 SLP046 T02220133 53007

More Conditions Fewer Conditions

10-Day Weather Forecast

Almanac

Astronomy

Sep. 01, 2014 Rise Set
Actual Time 6:23 AM CDT 7:42 PM CDT
Civil Twilight 5:52 AM CDT 8:13 PM CDT
Nautical Twilight 5:14 AM CDT 8:51 PM CDT
Astronomical Twilight 4:33 AM CDT 9:31 PM CDT
Moon 1:34 PM CDT 11:18 PM CDT
Length of Visible Light 14h 21m
Length of Day
13h 19m
Tomorrow will be 3m 12s shorter.
Waxing Crescent, 44% of the Moon is Illuminated
Today
Waxing Crescent
Sep 2
First Quarter
Sep 8
Full
Sep 15
Last Quarter
Sep 24
New

Today's Extremes

State Highs State Lows

Community

WunderPhotos

Upload Photos

1,749,409 photos uploaded!

WunderBlogs® & News

Nearby

Snow Depth

Station Depth Elevation
No new snow has been reported.

Earthquake Activity

City Distance Mag. Time & Date
No recent earthquake activity has been reported nearby.
Minimum magnitude displayed is 2.5.

Coastal Water Temperatures

Place Temperature
Duluth, MN 64.9 °F

Nearby Weather Stations